Time;durP1;ratioP1;P1;durP2;ratioP2;P2;SDS_P1;SDS_P2;PMS_P1;PMS_P2;Temp;Humidity;BMP_temperature;BMP_pressure;BME280_temperature;BME280_humidity;BME280_pressure;Samples;Min_cycle;Max_cycle;Signal;HPM_P1;HPM_P2
2022/06/15 00:01:28;;;;;;;3.05;0.55;;;14.50;83.60;;;;;;5088343;28;19965;-80
2022/06/15 00:03:54;;;;;;;5.43;0.60;;;14.40;84.00;;;;;;5087355;28;20032;-82
2022/06/15 00:06:27;;;;;;;3.25;0.60;;;14.50;85.00;;;;;;5089817;28;20060;-82
2022/06/15 00:08:56;;;;;;;1.45;0.50;;;14.50;85.60;;;;;;5088621;28;20159;-82
2022/06/15 00:11:25;;;;;;;2.22;0.60;;;14.50;86.30;;;;;;5087891;28;20660;-82
2022/06/15 00:13:52;;;;;;;4.65;0.73;;;14.50;87.90;;;;;;5088365;28;20021;-82
2022/06/15 00:16:19;;;;;;;2.00;0.77;;;14.40;89.30;;;;;;5087850;28;20123;-80
2022/06/15 00:18:45;;;;;;;2.53;0.70;;;14.50;90.30;;;;;;5087275;28;20061;-82
2022/06/15 00:21:13;;;;;;;2.38;0.70;;;14.40;90.80;;;;;;5087882;28;20032;-81
2022/06/15 00:23:39;;;;;;;4.32;0.60;;;14.40;91.40;;;;;;5086143;28;20031;-80
2022/06/15 00:26:04;;;;;;;;;;;14.40;91.90;;;;;;5086455;28;20032;-78
2022/06/15 00:28:31;;;;;;;2.10;0.60;;;14.40;92.50;;;;;;5086399;28;19973;-79
2022/06/15 00:30:57;;;;;;;5.47;0.68;;;14.40;92.60;;;;;;5087445;28;20497;-79
2022/06/15 00:33:23;;;;;;;;;;;14.40;92.90;;;;;;5088512;28;20046;-80
2022/06/15 00:35:57;;;;;;;3.20;0.63;;;14.50;93.30;;;;;;5086873;28;20277;-81
2022/06/15 00:38:31;;;;;;;5.97;0.60;;;14.40;93.50;;;;;;5085923;28;20043;-80
2022/06/15 00:40:57;;;;;;;3.05;0.70;;;14.50;93.90;;;;;;5087559;28;20500;-81
2022/06/15 00:43:39;;;;;;;4.78;0.85;;;14.50;94.10;;;;;;5087686;28;20103;-82
2022/06/15 00:46:30;;;;;;;4.35;0.65;;;14.50;94.40;;;;;;5087546;28;20031;-81
2022/06/15 00:49:08;;;;;;;2.78;0.85;;;14.50;94.60;;;;;;5087711;28;20099;-81
2022/06/15 00:51:36;;;;;;;4.13;0.80;;;14.50;94.80;;;;;;5088511;28;20027;-82
2022/06/15 00:54:02;;;;;;;1.67;0.52;;;14.40;95.10;;;;;;5087027;28;20601;-81
2022/06/15 00:56:30;;;;;;;1.58;0.60;;;14.50;95.30;;;;;;5086761;28;20093;-82
2022/06/15 00:59:01;;;;;;;2.03;0.60;;;14.40;95.50;;;;;;5086736;28;20040;-85
2022/06/15 01:01:26;;;;;;;3.50;0.90;;;14.40;95.80;;;;;;5087933;28;20496;-81
2022/06/15 01:03:53;;;;;;;;;;;14.40;95.90;;;;;;5087357;28;20035;-81
2022/06/15 01:06:56;;;;;;;2.45;0.70;;;14.40;95.90;;;;;;5087706;28;19943;-81
2022/06/15 01:09:27;;;;;;;5.80;0.85;;;14.40;96.00;;;;;;5086061;28;20258;-80
2022/06/15 01:12:10;;;;;;;2.15;0.70;;;14.40;96.00;;;;;;5087266;28;20047;-82
2022/06/15 01:14:56;;;;;;;2.60;0.82;;;14.40;96.20;;;;;;5087390;28;20157;-82
2022/06/15 01:17:54;;;;;;;2.65;0.80;;;14.40;96.50;;;;;;5087564;28;20047;-82
2022/06/15 01:20:25;;;;;;;1.67;0.55;;;14.40;96.60;;;;;;5087292;28;20040;-82
2022/06/15 01:23:28;;;;;;;1.63;0.63;;;14.40;96.40;;;;;;5088032;28;20554;-81
2022/06/15 01:26:02;;;;;;;7.82;0.80;;;14.40;96.40;;;;;;5087319;28;20397;-81
2022/06/15 01:28:48;;;;;;;7.53;0.60;;;14.40;96.40;;;;;;5088192;28;20055;-82
2022/06/15 01:31:53;;;;;;;4.70;0.60;;;14.40;96.40;;;;;;5086993;28;20069;-82
2022/06/15 01:34:18;;;;;;;2.25;0.80;;;14.40;96.40;;;;;;5043111;28;20507;-81
2022/06/15 01:36:46;;;;;;;;;;;14.40;96.60;;;;;;5088184;28;20028;-82
2022/06/15 01:39:28;;;;;;;3.70;0.73;;;14.40;96.80;;;;;;5086636;28;19916;-82
2022/06/15 01:42:03;;;;;;;6.47;1.63;;;14.30;96.60;;;;;;5087175;28;20024;-82
2022/06/15 01:44:32;;;;;;;3.05;0.68;;;14.30;96.60;;;;;;5088478;28;20034;-82
2022/06/15 01:47:02;;;;;;;4.85;1.02;;;14.30;96.70;;;;;;5087296;28;20496;-81
2022/06/15 01:49:43;;;;;;;2.63;0.80;;;14.30;96.80;;;;;;5086511;28;20031;-80
2022/06/15 01:52:13;;;;;;;3.75;0.70;;;14.30;97.10;;;;;;5085240;28;20024;-80
2022/06/15 01:54:48;;;;;;;0.82;0.45;;;14.20;96.80;;;;;;5084921;28;20028;-80
2022/06/15 01:57:15;;;;;;;5.22;0.70;;;14.30;96.80;;;;;;5086077;28;20028;-81
2022/06/15 02:00:04;;;;;;;2.47;0.80;;;14.30;96.80;;;;;;5086712;28;20507;-82
2022/06/15 02:02:58;;;;;;;8.45;2.25;;;14.30;96.70;;;;;;5087265;28;20119;-84
2022/06/15 02:05:36;;;;;;;1.80;0.60;;;14.30;96.70;;;;;;5088610;28;20108;-83
2022/06/15 02:08:15;;;;;;;1.05;0.50;;;14.30;97.00;;;;;;5087825;28;20052;-83
2022/06/15 02:11:06;;;;;;;1.92;0.60;;;14.30;97.00;;;;;;5089099;28;20480;-83
2022/06/15 02:13:40;;;;;;;1.55;0.73;;;14.20;97.10;;;;;;5091526;28;20039;-82
2022/06/15 02:16:12;;;;;;;4.45;0.77;;;14.20;97.30;;;;;;5091945;28;20024;-82
2022/06/15 02:18:41;;;;;;;3.67;0.80;;;14.20;97.40;;;;;;5091335;28;20458;-84
2022/06/15 02:21:12;;;;;;;8.77;0.80;;;14.20;97.40;;;;;;5092287;28;20032;-84
2022/06/15 02:23:42;;;;;;;2.35;0.68;;;14.20;97.50;;;;;;5089751;28;20020;-83
2022/06/15 02:26:09;;;;;;;3.00;0.60;;;14.10;97.60;;;;;;5090582;28;20040;-83
2022/06/15 02:28:40;;;;;;;3.13;0.60;;;14.10;97.90;;;;;;5089494;28;20089;-82
2022/06/15 02:31:07;;;;;;;3.05;0.60;;;14.10;97.90;;;;;;5091579;28;20557;-83
2022/06/15 02:33:37;;;;;;;4.50;0.65;;;14.10;97.90;;;;;;5091211;28;20024;-83
2022/06/15 02:36:04;;;;;;;5.25;0.70;;;14.10;98.00;;;;;;5091518;28;20055;-81
2022/06/15 02:38:31;;;;;;;1.83;0.70;;;14.00;98.10;;;;;;5091124;28;20075;-83
2022/06/15 02:40:57;;;;;;;2.25;0.75;;;14.00;98.10;;;;;;5091957;28;20024;-82
2022/06/15 02:43:27;;;;;;;4.50;0.80;;;14.10;98.20;;;;;;5087562;28;20463;-82
2022/06/15 02:45:55;;;;;;;3.15;0.77;;;14.00;98.30;;;;;;5086665;28;20017;-83
2022/06/15 02:48:22;;;;;;;2.25;0.77;;;14.00;98.40;;;;;;5067824;28;20020;-82
2022/06/15 02:50:51;;;;;;;1.85;0.60;;;14.00;98.50;;;;;;5066355;28;20606;-83
2022/06/15 02:53:21;;;;;;;3.25;0.82;;;14.00;98.40;;;;;;5077096;28;20348;-82
2022/06/15 02:55:49;;;;;;;6.78;0.60;;;14.00;98.50;;;;;;5085945;28;20488;-82
2022/06/15 02:58:27;;;;;;;1.13;0.63;;;14.00;98.60;;;;;;5083867;28;20225;-80
2022/06/15 03:00:53;;;;;;;3.78;1.02;;;14.00;98.60;;;;;;5086012;28;20020;-82
2022/06/15 03:03:20;;;;;;;2.63;0.60;;;14.00;98.70;;;;;;5085017;28;20214;-82
2022/06/15 03:05:47;;;;;;;5.03;0.70;;;14.00;98.80;;;;;;5086512;28;20066;-82
2022/06/15 03:08:14;;;;;;;2.70;0.60;;;14.00;98.90;;;;;;5089559;28;20024;-81
2022/06/15 03:10:39;;;;;;;7.75;0.73;;;14.00;99.00;;;;;;5084967;28;20251;-82
2022/06/15 03:13:05;;;;;;;;;;;14.00;98.90;;;;;;5085728;28;20066;-82
2022/06/15 03:15:31;;;;;;;6.10;1.27;;;14.10;99.10;;;;;;5085233;28;19904;-81
2022/06/15 03:17:56;;;;;;;;;;;14.10;98.90;;;;;;5087528;28;20016;-82
2022/06/15 03:20:22;;;;;;;2.15;0.77;;;14.20;98.90;;;;;;5084286;28;19908;-82
2022/06/15 03:22:48;;;;;;;;;;;14.20;98.40;;;;;;5086344;28;20488;-81
2022/06/15 03:25:14;;;;;;;3.72;0.60;;;14.20;98.30;;;;;;5084687;28;20368;-81
2022/06/15 03:27:40;;;;;;;5.53;0.60;;;14.30;98.10;;;;;;5085274;28;20035;-81
2022/06/15 03:30:07;;;;;;;;;;;14.40;97.90;;;;;;5085733;28;20396;-81
2022/06/15 03:32:33;;;;;;;3.13;0.70;;;14.40;97.70;;;;;;5084753;28;19907;-81
2022/06/15 03:34:59;;;;;;;2.25;0.70;;;14.50;97.20;;;;;;5085058;28;20660;-81
2022/06/15 03:37:25;;;;;;;;;;;14.60;97.10;;;;;;5086349;28;20028;-82
2022/06/15 03:39:52;;;;;;;3.20;0.80;;;14.70;97.00;;;;;;5084906;28;19912;-81
2022/06/15 03:42:22;;;;;;;5.55;0.70;;;14.90;96.80;;;;;;5086135;28;20036;-81
2022/06/15 03:44:48;;;;;;;5.03;0.73;;;14.90;96.40;;;;;;5084533;28;20047;-81
2022/06/15 03:47:17;;;;;;;;;;;15.00;95.90;;;;;;5085147;28;20023;-81
2022/06/15 03:49:48;;;;;;;3.28;0.80;;;15.10;95.60;;;;;;5084299;28;19958;-82
2022/06/15 03:52:14;;;;;;;6.60;3.88;;;15.20;95.40;;;;;;5085322;28;20031;-81
2022/06/15 03:54:40;;;;;;;4.60;1.63;;;15.30;95.30;;;;;;5083236;28;20055;-81
2022/06/15 03:57:06;;;;;;;;;;;15.50;95.20;;;;;;5083908;28;20480;-81
2022/06/15 03:59:32;;;;;;;3.08;0.98;;;15.60;95.00;;;;;;5083256;28;20349;-81
2022/06/15 04:01:58;;;;;;;3.63;0.73;;;15.80;94.70;;;;;;5084327;28;20519;-80
2022/06/15 04:04:23;;;;;;;;;;;16.00;94.50;;;;;;5083579;28;20039;-80
2022/06/15 04:06:49;;;;;;;0.95;0.52;;;16.20;94.00;;;;;;5086133;28;19908;-82
2022/06/15 04:09:21;;;;;;;2.88;0.77;;;16.20;93.70;;;;;;5083461;28;20495;-80
2022/06/15 04:11:59;;;;;;;4.75;1.10;;;16.30;93.60;;;;;;5085447;28;20023;-80
2022/06/15 04:14:25;;;;;;;2.28;0.57;;;16.20;93.70;;;;;;5083285;28;20111;-81
2022/06/15 04:16:54;;;;;;;4.43;0.60;;;16.20;94.20;;;;;;5084490;28;20512;-81
2022/06/15 04:19:21;;;;;;;5.97;0.85;;;16.30;94.30;;;;;;5084680;28;20036;-81
2022/06/15 04:21:47;;;;;;;3.67;0.90;;;16.50;94.00;;;;;;5083393;28;20043;-80
2022/06/15 04:24:17;;;;;;;5.07;0.70;;;16.70;93.30;;;;;;5082881;28;20481;-79
2022/06/15 04:26:44;;;;;;;3.33;0.50;;;16.90;92.90;;;;;;5083154;28;20024;-80
2022/06/15 04:29:10;;;;;;;2.95;0.73;;;17.20;92.20;;;;;;5083067;28;20044;-80
2022/06/15 04:31:38;;;;;;;6.00;0.68;;;17.50;91.50;;;;;;5084190;28;20091;-83
2022/06/15 04:34:04;;;;;;;1.88;0.50;;;17.70;90.70;;;;;;5082406;28;20146;-81
2022/06/15 04:36:30;;;;;;;3.60;0.60;;;17.80;90.20;;;;;;5084362;28;20061;-80
2022/06/15 04:38:57;;;;;;;3.95;0.50;;;18.10;89.80;;;;;;5084943;28;20078;-81
2022/06/15 04:41:22;;;;;;;1.13;0.40;;;18.30;88.60;;;;;;5083009;28;20042;-80
2022/06/15 04:43:48;;;;;;;4.90;0.70;;;18.50;87.10;;;;;;5086005;28;20839;-81
2022/06/15 04:46:14;;;;;;;2.38;0.50;;;18.70;86.20;;;;;;5086656;28;20689;-81
2022/06/15 04:48:41;;;;;;;3.22;0.60;;;18.80;85.60;;;;;;5088602;28;20024;-81
2022/06/15 04:51:15;;;;;;;1.50;0.68;;;18.90;84.90;;;;;;5086781;28;20035;-79
2022/06/15 04:53:41;;;;;;;3.03;0.57;;;19.00;84.00;;;;;;5086724;28;20107;-80
2022/06/15 04:56:07;;;;;;;2.85;0.50;;;19.10;83.00;;;;;;5086235;28;20507;-81
2022/06/15 04:58:32;;;;;;;3.88;0.75;;;19.30;81.80;;;;;;5085926;28;20047;-81
2022/06/15 05:00:59;;;;;;;3.30;0.60;;;19.50;81.30;;;;;;5087379;28;20036;-81
2022/06/15 05:03:25;;;;;;;4.60;0.75;;;19.50;80.50;;;;;;5086348;28;20064;-81
2022/06/15 05:05:57;;;;;;;5.47;0.70;;;19.60;80.30;;;;;;5087537;28;20440;-82
2022/06/15 05:08:23;;;;;;;3.15;0.70;;;19.60;80.00;;;;;;5087428;28;20452;-82
2022/06/15 05:10:48;;;;;;;2.92;0.43;;;19.70;79.70;;;;;;5087303;28;20035;-81
2022/06/15 05:13:14;;;;;;;1.52;0.45;;;19.70;78.40;;;;;;5086146;28;20114;-80
2022/06/15 05:15:40;;;;;;;8.45;0.65;;;19.80;76.20;;;;;;5086341;28;20163;-80
2022/06/15 05:18:07;;;;;;;2.92;0.93;;;20.00;75.60;;;;;;5086830;28;20026;-81
2022/06/15 05:20:38;;;;;;;5.25;0.52;;;20.10;75.00;;;;;;5086653;28;20032;-81
2022/06/15 05:23:04;;;;;;;5.05;0.70;;;20.30;73.30;;;;;;5087197;28;20052;-81
2022/06/15 05:25:30;;;;;;;2.40;1.08;;;20.40;72.10;;;;;;5085986;28;20082;-81
2022/06/15 05:27:55;;;;;;;3.53;0.55;;;20.50;70.90;;;;;;5085458;28;20044;-80
2022/06/15 05:30:21;;;;;;;2.10;0.50;;;20.60;68.80;;;;;;5086489;28;20036;-81
2022/06/15 05:32:47;;;;;;;1.48;0.57;;;20.70;68.60;;;;;;5085623;28;20035;-80
2022/06/15 05:35:13;;;;;;;4.80;0.80;;;20.80;69.10;;;;;;5085198;28;20056;-81
2022/06/15 05:37:39;;;;;;;3.88;0.70;;;20.90;67.40;;;;;;5086662;28;20038;-81
2022/06/15 05:40:06;;;;;;;2.40;0.52;;;21.00;67.30;;;;;;5086756;28;20073;-80
2022/06/15 05:42:32;;;;;;;1.75;0.45;;;21.30;63.80;;;;;;5086766;28;20016;-80
2022/06/15 05:44:58;;;;;;;7.00;1.08;;;21.60;62.10;;;;;;5087333;28;20993;-81
2022/06/15 05:47:24;;;;;;;1.92;0.80;;;22.10;59.70;;;;;;5089958;28;20040;-82
2022/06/15 05:49:49;;;;;;;3.08;0.95;;;22.70;57.90;;;;;;5088468;28;20028;-81
2022/06/15 05:52:15;;;;;;;3.28;0.68;;;23.20;55.60;;;;;;5091448;28;20084;-84
2022/06/15 05:54:41;;;;;;;3.83;0.70;;;23.50;55.70;;;;;;5090596;28;20028;-80
2022/06/15 05:57:18;;;;;;;3.78;1.20;;;24.50;52.20;;;;;;5089761;28;20032;-84
2022/06/15 05:59:48;;;;;;;4.43;1.10;;;25.80;48.70;;;;;;5092222;28;20074;-82
2022/06/15 06:02:16;;;;;;;7.97;1.05;;;27.20;44.50;;;;;;5089609;28;20081;-81
2022/06/15 06:04:42;;;;;;;5.95;0.90;;;28.20;41.80;;;;;;5088418;28;20043;-80
2022/06/15 06:07:09;;;;;;;2.03;0.75;;;29.40;39.40;;;;;;5088803;28;20024;-80
2022/06/15 06:09:35;;;;;;;4.53;0.82;;;30.50;36.30;;;;;;5089698;28;20103;-81
2022/06/15 06:12:01;;;;;;;2.30;0.70;;;31.30;34.40;;;;;;5089064;28;20564;-82
2022/06/15 06:14:26;;;;;;;4.65;0.80;;;31.90;32.50;;;;;;5089803;28;20111;-81
2022/06/15 06:16:52;;;;;;;2.55;0.80;;;32.50;31.20;;;;;;5089719;28;20404;-82
2022/06/15 06:19:18;;;;;;;6.90;0.80;;;32.70;30.00;;;;;;5089275;28;20047;-83
2022/06/15 06:21:44;;;;;;;4.00;0.80;;;32.50;29.80;;;;;;5089732;28;20028;-79
2022/06/15 06:24:10;;;;;;;16.17;1.48;;;32.90;29.60;;;;;;5089344;28;20024;-78
2022/06/15 06:26:36;;;;;;;2.83;0.80;;;33.40;28.90;;;;;;5089490;28;20044;-81
2022/06/15 06:29:03;;;;;;;6.05;0.90;;;33.40;28.40;;;;;;5089714;28;20085;-81
2022/06/15 06:31:30;;;;;;;3.80;1.00;;;33.50;28.50;;;;;;5104695;28;20112;-80
2022/06/15 06:33:56;;;;;;;2.63;0.90;;;33.80;28.30;;;;;;5088887;28;20028;-81
2022/06/15 06:36:33;;;;;;;3.17;1.10;;;34.10;27.10;;;;;;5089265;28;20032;-81
2022/06/15 06:39:01;;;;;;;3.67;0.85;;;34.00;26.60;;;;;;5089395;28;20571;-81
2022/06/15 06:41:28;;;;;;;6.82;0.98;;;33.60;27.30;;;;;;5089463;28;20024;-78
2022/06/15 06:43:55;;;;;;;5.75;0.80;;;33.50;27.30;;;;;;5089229;28;20028;-77
2022/06/15 06:46:21;;;;;;;4.22;0.93;;;33.60;27.40;;;;;;5088056;28;20090;-80
2022/06/15 06:48:47;;;;;;;7.20;1.10;;;33.70;26.50;;;;;;5086387;28;20547;-80
2022/06/15 06:51:13;;;;;;;2.92;1.20;;;34.10;26.70;;;;;;5089257;28;20027;-81
2022/06/15 06:53:39;;;;;;;4.75;1.15;;;34.00;26.60;;;;;;5088900;28;20036;-81
2022/06/15 06:56:07;;;;;;;2.88;0.90;;;33.50;26.60;;;;;;5087337;28;20408;-81
2022/06/15 06:58:33;;;;;;;6.65;0.80;;;33.60;26.60;;;;;;5088857;28;20036;-81
2022/06/15 07:00:59;;;;;;;12.35;1.20;;;33.30;26.80;;;;;;5088993;28;20028;-80
2022/06/15 07:03:25;;;;;;;3.78;0.85;;;33.40;27.40;;;;;;5088818;28;20067;-81
2022/06/15 07:05:51;;;;;;;3.28;0.77;;;33.70;26.40;;;;;;5088810;28;20111;-80
2022/06/15 07:08:17;;;;;;;4.82;1.20;;;33.30;26.60;;;;;;5088712;28;20039;-80
2022/06/15 07:10:43;;;;;;;3.70;1.40;;;32.80;26.80;;;;;;5088706;28;20028;-81
2022/06/15 07:13:09;;;;;;;4.38;0.90;;;33.00;26.80;;;;;;5088778;28;20547;-79
2022/06/15 07:15:36;;;;;;;5.93;1.10;;;32.70;26.80;;;;;;5088539;28;20519;-79
2022/06/15 07:18:03;;;;;;;2.42;1.05;;;32.60;27.30;;;;;;5089017;28;20017;-81
2022/06/15 07:20:30;;;;;;;3.28;0.70;;;32.30;26.90;;;;;;5088816;28;20036;-79
2022/06/15 07:22:57;;;;;;;3.08;0.90;;;32.50;27.30;;;;;;5088625;28;20430;-81
2022/06/15 07:25:24;;;;;;;3.28;0.95;;;33.00;27.30;;;;;;5088058;28;20508;-80
2022/06/15 07:27:51;;;;;;;6.10;0.82;;;33.40;27.00;;;;;;5087066;28;20119;-81
2022/06/15 07:30:21;;;;;;;2.15;0.82;;;33.00;27.00;;;;;;5088487;28;20035;-80
2022/06/15 07:32:47;;;;;;;5.88;1.25;;;33.50;26.70;;;;;;5086867;28;20036;-81
2022/06/15 07:35:22;;;;;;;2.38;0.70;;;32.90;26.80;;;;;;5087903;28;20052;-81
2022/06/15 07:37:51;;;;;;;10.77;1.20;;;33.20;27.10;;;;;;5087916;28;20043;-81
2022/06/15 07:40:17;;;;;;;3.78;0.93;;;33.40;26.90;;;;;;5086556;28;20071;-80
2022/06/15 07:42:45;;;;;;;5.68;1.65;;;33.30;26.80;;;;;;5086524;28;20487;-80
2022/06/15 07:45:13;;;;;;;4.32;0.75;;;32.80;27.50;;;;;;5088266;28;20028;-81
2022/06/15 07:50:23;;;;;;;4.60;1.13;;;33.00;26.50;;;;;;5088356;28;20034;-80
2022/06/15 07:52:52;;;;;;;3.78;1.00;;;31.20;27.70;;;;;;5087038;28;20032;-80
2022/06/15 07:55:23;;;;;;;6.35;0.80;;;30.30;29.10;;;;;;5088144;28;20123;-80
2022/06/15 07:57:49;;;;;;;8.63;1.15;;;30.20;29.80;;;;;;5088017;28;20035;-80
2022/06/15 08:00:16;;;;;;;14.60;0.70;;;30.50;29.40;;;;;;5088081;28;20059;-80
2022/06/15 08:02:42;;;;;;;4.45;1.00;;;30.70;29.10;;;;;;5087072;28;20028;-80
2022/06/15 08:05:08;;;;;;;3.75;0.70;;;31.10;28.90;;;;;;5086589;28;20390;-80
2022/06/15 08:07:35;;;;;;;4.00;1.02;;;31.10;28.50;;;;;;5087068;28;20024;-80
2022/06/15 08:10:02;;;;;;;8.73;0.93;;;30.90;29.40;;;;;;5086919;28;20143;-81
2022/06/15 08:12:28;;;;;;;3.65;0.90;;;31.50;29.10;;;;;;5088141;28;20025;-78
2022/06/15 08:14:56;;;;;;;2.35;0.88;;;31.90;28.20;;;;;;5086062;28;20024;-78
2022/06/15 08:17:35;;;;;;;3.47;1.00;;;32.40;28.10;;;;;;5087789;28;20072;-78
2022/06/15 08:20:09;;;;;;;3.70;0.80;;;32.80;28.10;;;;;;5087787;28;20063;-78
2022/06/15 08:22:39;;;;;;;5.32;1.10;;;33.00;27.60;;;;;;5087452;28;20107;-78
2022/06/15 08:25:07;;;;;;;3.25;1.00;;;33.00;27.60;;;;;;5087226;28;20042;-78
2022/06/15 08:27:35;;;;;;;2.92;0.80;;;33.00;27.60;;;;;;5085744;28;20118;-78
2022/06/15 08:30:00;;;;;;;4.97;1.33;;;32.80;27.70;;;;;;5087580;28;20434;-78
2022/06/15 08:32:26;;;;;;;2.67;0.82;;;32.80;27.20;;;;;;5084665;28;20537;-78
2022/06/15 08:34:51;;;;;;;6.55;1.00;;;32.50;28.20;;;;;;5087085;28;20085;-79
2022/06/15 08:37:19;;;;;;;3.38;1.17;;;32.70;27.10;;;;;;5086840;28;20082;-78
2022/06/15 08:39:45;;;;;;;7.20;1.33;;;32.70;27.90;;;;;;5085458;28;20116;-80
2022/06/15 08:43:06;;;;;;;5.72;1.10;;;33.00;27.30;;;;;;5085961;28;20484;-80
2022/06/15 08:46:02;;;;;;;3.08;0.73;;;32.90;27.80;;;;;;5008101;28;20063;-78
2022/06/15 08:48:41;;;;;;;5.65;1.00;;;33.40;27.80;;;;;;5063966;28;20060;-79
2022/06/15 08:51:18;;;;;;;4.68;1.60;;;33.90;27.40;;;;;;5065842;28;20056;-80
2022/06/15 08:53:57;;;;;;;1.95;0.90;;;34.30;26.90;;;;;;5065280;28;20123;-80
2022/06/15 08:56:34;;;;;;;3.90;0.90;;;34.60;26.90;;;;;;5081862;28;20033;-80
2022/06/15 08:59:36;;;;;;;5.55;0.90;;;34.80;27.30;;;;;;5081902;28;20037;-79
2022/06/15 09:02:24;;;;;;;2.50;0.75;;;34.80;26.30;;;;;;5070112;28;20027;-80
2022/06/15 09:05:06;;;;;;;4.63;1.48;;;34.90;26.30;;;;;;5086842;28;20032;-80
2022/06/15 09:07:59;;;;;;;3.22;0.82;;;35.30;26.60;;;;;;5086781;28;20024;-80
2022/06/15 09:10:56;;;;;;;4.10;0.80;;;35.20;26.60;;;;;;5085329;28;20039;-80
2022/06/15 09:13:59;;;;;;;3.47;1.45;;;34.00;26.20;;;;;;5086061;28;20170;-79
2022/06/15 09:16:42;;;;;;;2.53;0.82;;;33.30;27.00;;;;;;5038914;28;20040;-79
2022/06/15 09:19:15;;;;;;;3.90;1.02;;;33.30;27.20;;;;;;5082369;28;20046;-79
2022/06/15 09:21:54;;;;;;;2.63;1.05;;;33.60;26.00;;;;;;5083112;28;20736;-77
2022/06/15 09:24:27;;;;;;;4.88;0.90;;;33.10;27.10;;;;;;5081106;28;20110;-78
2022/06/15 09:26:56;;;;;;;4.38;1.10;;;33.50;27.20;;;;;;5085612;28;20043;-79
2022/06/15 09:29:27;;;;;;;4.53;0.80;;;34.10;26.60;;;;;;5085032;28;20517;-78
2022/06/15 09:32:14;;;;;;;9.30;0.57;;;34.50;26.50;;;;;;5082662;28;20051;-78
2022/06/15 09:34:47;;;;;;;6.30;0.90;;;34.60;26.40;;;;;;5082255;28;20036;-78
2022/06/15 09:37:19;;;;;;;6.32;1.00;;;33.80;26.70;;;;;;5082751;28;20731;-78
2022/06/15 09:39:45;;;;;;;4.68;1.10;;;33.70;27.40;;;;;;5083634;28;20036;-78
2022/06/15 09:42:43;;;;;;;5.95;1.10;;;34.10;26.90;;;;;;5085223;28;20047;-78
2022/06/15 09:45:15;;;;;;;8.00;0.90;;;34.60;25.20;;;;;;5050898;28;20127;-78
2022/06/15 09:47:58;;;;;;;6.97;1.00;;;34.40;26.20;;;;;;5081969;28;20040;-78
2022/06/15 09:50:43;;;;;;;3.92;0.90;;;34.60;26.10;;;;;;5080601;28;20630;-77
2022/06/15 09:53:40;;;;;;;3.17;0.70;;;34.70;25.20;;;;;;5080876;28;20076;-79
2022/06/15 09:56:10;;;;;;;3.38;0.90;;;33.70;26.10;;;;;;5081342;28;20051;-78
2022/06/15 09:58:45;;;;;;;2.53;0.98;;;32.50;26.80;;;;;;5081729;28;20042;-78
2022/06/15 10:01:12;;;;;;;2.70;0.70;;;32.00;27.10;;;;;;5083148;28;20524;-77
2022/06/15 10:03:47;;;;;;;3.65;1.02;;;31.40;27.20;;;;;;5083222;28;20327;-77
2022/06/15 10:06:16;;;;;;;4.30;0.80;;;31.10;27.10;;;;;;5083520;28;20503;-77
2022/06/15 10:08:42;;;;;;;7.55;0.93;;;30.50;28.50;;;;;;5083907;28;20036;-77
2022/06/15 10:11:15;;;;;;;3.92;1.15;;;30.60;28.70;;;;;;5083876;28;20028;-79
2022/06/15 10:13:41;;;;;;;3.42;0.90;;;30.60;29.20;;;;;;5084876;28;20174;-77
2022/06/15 10:16:28;;;;;;;4.35;0.80;;;30.60;28.50;;;;;;5078118;28;20459;-81
2022/06/15 10:18:58;;;;;;;5.43;0.80;;;30.50;28.30;;;;;;5069320;28;20029;-82
2022/06/15 10:21:30;;;;;;;1.73;0.73;;;30.40;28.90;;;;;;5104381;28;20142;-81
2022/06/15 10:24:04;;;;;;;3.42;0.95;;;30.50;29.30;;;;;;5102292;28;20168;-80
2022/06/15 10:26:32;;;;;;;6.60;0.85;;;30.80;28.70;;;;;;5102767;28;20067;-78
2022/06/15 10:29:16;;;;;;;2.45;0.70;;;30.30;28.60;;;;;;5101234;28;20056;-77
2022/06/15 10:31:56;;;;;;;2.55;0.75;;;29.70;29.20;;;;;;5105546;28;20459;-78
2022/06/15 10:34:30;;;;;;;3.72;1.10;;;29.30;29.80;;;;;;5105015;28;20040;-77
2022/06/15 10:36:59;;;;;;;3.03;0.90;;;29.10;30.10;;;;;;5103610;28;20036;-77
2022/06/15 10:39:30;;;;;;;7.22;0.70;;;29.30;29.90;;;;;;5103741;28;20496;-78
2022/06/15 10:42:40;;;;;;;6.43;1.15;;;29.30;29.70;;;;;;5104324;28;20122;-79
2022/06/15 10:45:18;;;;;;;1.73;0.80;;;29.00;29.80;;;;;;5107077;28;20040;-79
2022/06/15 10:47:50;;;;;;;6.18;1.23;;;28.60;29.90;;;;;;5107500;28;20054;-78
2022/06/15 10:50:52;;;;;;;5.30;1.05;;;28.30;30.80;;;;;;5107191;28;20160;-79
2022/06/15 10:53:35;;;;;;;3.95;0.80;;;28.40;31.10;;;;;;5103773;28;20039;-79
2022/06/15 11:04:31;;;;;;;1.75;0.90;;;27.80;31.20;;;;;;5105769;28;20084;-79
2022/06/15 11:07:07;;;;;;;4.40;1.13;;;27.70;31.30;;;;;;5108829;28;20102;-79
2022/06/15 11:09:32;;;;;;;4.82;0.85;;;27.40;31.40;;;;;;5107872;28;20048;-78
2022/06/15 11:12:01;;;;;;;2.13;0.70;;;27.20;31.50;;;;;;5089614;28;20055;-77
2022/06/15 11:14:55;;;;;;;5.68;0.80;;;27.00;31.90;;;;;;5098712;28;20042;-77
2022/06/15 11:20:37;;;;;;;3.28;1.13;;;27.70;33.20;;;;;;5101517;28;20530;-78
2022/06/15 11:23:29;;;;;;;3.63;0.95;;;28.00;32.30;;;;;;5104804;28;20031;-78
2022/06/15 11:29:37;;;;;;;6.53;1.00;;;28.50;32.60;;;;;;5109058;28;20059;-79
2022/06/15 11:32:52;;;;;;;3.95;0.88;;;28.60;31.50;;;;;;5108039;28;20036;-79
2022/06/15 11:35:41;;;;;;;8.32;0.85;;;28.60;30.30;;;;;;5009071;28;20529;-78
2022/06/15 11:38:24;;;;;;;3.53;0.98;;;28.50;30.20;;;;;;5108151;28;20051;-77
2022/06/15 11:40:54;;;;;;;5.47;0.80;;;28.20;30.20;;;;;;5106439;28;20050;-79
2022/06/15 11:43:42;;;;;;;3.20;0.73;;;27.90;31.40;;;;;;5108506;28;20533;-79
2022/06/15 11:46:13;;;;;;;3.38;0.73;;;27.70;31.30;;;;;;5107024;28;20051;-79
2022/06/15 11:48:51;;;;;;;2.85;0.77;;;27.50;32.10;;;;;;5090211;28;20273;-78
2022/06/15 11:51:32;;;;;;;2.05;0.88;;;27.50;31.30;;;;;;5090736;28;20016;-78
2022/06/15 11:54:09;;;;;;;6.97;1.50;;;27.60;30.40;;;;;;5108648;28;20024;-78
2022/06/15 11:56:48;;;;;;;2.25;0.70;;;27.70;32.00;;;;;;5090301;28;20031;-78
2022/06/15 11:59:43;;;;;;;2.17;0.70;;;27.90;31.80;;;;;;5108117;28;20034;-78
2022/06/15 12:02:26;;;;;;;2.15;0.68;;;28.10;31.30;;;;;;5107629;28;20077;-79
2022/06/15 12:05:34;;;;;;;13.40;3.35;;;28.30;31.40;;;;;;5107772;28;20059;-79
2022/06/15 12:08:41;;;;;;;4.45;0.60;;;28.50;30.90;;;;;;5041013;28;20033;-79
2022/06/15 12:14:21;;;;;;;1.63;0.60;;;28.70;31.20;;;;;;5107831;28;20519;-78
2022/06/15 12:17:03;;;;;;;5.43;1.13;;;28.70;30.70;;;;;;5107546;28;20097;-79
2022/06/15 12:19:34;;;;;;;4.18;0.60;;;28.90;30.00;;;;;;5107943;28;20032;-78
2022/06/15 12:22:12;;;;;;;9.65;0.70;;;29.10;30.00;;;;;;5107869;28;20015;-79
2022/06/15 12:25:42;;;;;;;3.42;0.70;;;29.30;30.50;;;;;;5107241;28;20019;-78
2022/06/15 12:28:33;;;;;;;2.47;0.93;;;29.50;30.00;;;;;;5023846;28;20088;-78
2022/06/15 12:31:19;;;;;;;3.53;0.98;;;29.60;29.50;;;;;;5007732;28;20132;-78
2022/06/15 12:34:04;;;;;;;2.90;0.70;;;29.60;29.40;;;;;;5088563;28;20034;-78
2022/06/15 12:36:47;;;;;;;4.15;0.63;;;29.60;29.50;;;;;;5106433;28;20225;-78
2022/06/15 12:39:46;;;;;;;4.35;0.63;;;29.60;29.80;;;;;;5089313;28;20027;-78
2022/06/15 12:42:14;;;;;;;4.35;0.88;;;29.60;29.50;;;;;;5106007;28;20073;-80
2022/06/15 12:45:26;;;;;;;3.90;1.20;;;29.70;29.90;;;;;;5105461;28;20117;-79
2022/06/15 12:47:56;;;;;;;5.82;0.85;;;29.70;30.20;;;;;;5089524;28;20058;-77
2022/06/15 12:50:36;;;;;;;2.83;0.80;;;29.60;29.70;;;;;;5107475;28;20786;-79
2022/06/15 12:53:09;;;;;;;2.80;0.80;;;29.50;30.10;;;;;;5108076;28;20030;-79
2022/06/15 12:55:58;;;;;;;7.03;1.10;;;29.50;29.70;;;;;;5089142;28;20027;-79
2022/06/15 12:58:52;;;;;;;6.13;0.80;;;29.50;29.90;;;;;;5107344;28;20036;-78
2022/06/15 13:01:32;;;;;;;2.08;0.65;;;29.40;29.50;;;;;;5105318;28;20059;-79
2022/06/15 13:04:11;;;;;;;4.10;0.43;;;29.40;29.10;;;;;;5107075;28;20499;-77
2022/06/15 13:06:40;;;;;;;3.45;0.80;;;29.30;29.10;;;;;;5107179;28;20019;-78
2022/06/15 13:09:21;;;;;;;7.15;0.85;;;29.20;29.50;;;;;;5107478;28;20031;-77
2022/06/15 13:12:05;;;;;;;2.50;0.60;;;29.20;29.70;;;;;;5107136;28;20098;-78
2022/06/15 13:14:53;;;;;;;6.68;0.70;;;29.20;29.20;;;;;;5106614;28;20030;-78
2022/06/15 13:17:22;;;;;;;1.55;0.73;;;28.90;29.60;;;;;;5106693;28;20036;-79
2022/06/15 13:19:51;;;;;;;3.13;0.70;;;28.80;29.20;;;;;;5106564;28;20499;-78
2022/06/15 13:22:32;;;;;;;1.73;0.60;;;28.70;29.50;;;;;;5105742;28;20027;-79
2022/06/15 13:24:57;;;;;;;2.90;0.70;;;28.50;29.30;;;;;;5106710;28;20020;-79
2022/06/15 13:27:47;;;;;;;3.10;0.60;;;28.20;29.30;;;;;;5106423;28;20089;-78
2022/06/15 13:30:31;;;;;;;4.78;0.70;;;28.20;30.10;;;;;;5105896;28;20185;-78
2022/06/15 13:33:04;;;;;;;3.20;0.80;;;28.20;30.90;;;;;;5106828;28;20042;-79
2022/06/15 13:35:32;;;;;;;4.32;0.60;;;28.50;30.70;;;;;;5087948;28;20123;-78
2022/06/15 13:38:20;;;;;;;5.97;0.60;;;28.60;30.30;;;;;;5106819;28;20038;-79
2022/06/15 13:40:57;;;;;;;5.45;0.70;;;28.50;30.00;;;;;;5088378;28;20028;-78
2022/06/15 13:43:26;;;;;;;3.38;1.10;;;28.60;30.70;;;;;;5087958;28;20028;-79